sensor_id;sensor_type;location;lat;lon;timestamp;temperature;humidity
6210;DHT22;3138;52.550;13.148;2023-02-18T00:02:10;6.70;99.90
6210;DHT22;3138;52.550;13.148;2023-02-18T00:04:37;6.70;99.90
6210;DHT22;3138;52.550;13.148;2023-02-18T00:07:04;6.70;99.90
6210;DHT22;3138;52.550;13.148;2023-02-18T00:09:30;6.60;99.90
6210;DHT22;3138;52.550;13.148;2023-02-18T00:11:59;6.60;99.90
6210;DHT22;3138;52.550;13.148;2023-02-18T00:14:25;6.60;99.90
6210;DHT22;3138;52.550;13.148;2023-02-18T00:16:52;6.50;99.90
6210;DHT22;3138;52.550;13.148;2023-02-18T00:19:19;6.40;99.90
6210;DHT22;3138;52.550;13.148;2023-02-18T00:21:46;6.40;1.00
6210;DHT22;3138;52.550;13.148;2023-02-18T00:24:15;6.40;1.00
6210;DHT22;3138;52.550;13.148;2023-02-18T00:26:42;6.30;1.00
6210;DHT22;3138;52.550;13.148;2023-02-18T00:29:11;6.30;1.00
6210;DHT22;3138;52.550;13.148;2023-02-18T00:31:38;6.30;1.00
6210;DHT22;3138;52.550;13.148;2023-02-18T00:34:06;6.10;1.00
6210;DHT22;3138;52.550;13.148;2023-02-18T00:36:34;6.20;1.00
6210;DHT22;3138;52.550;13.148;2023-02-18T00:39:03;6.20;1.00
6210;DHT22;3138;52.550;13.148;2023-02-18T00:41:31;6.00;1.00
6210;DHT22;3138;52.550;13.148;2023-02-18T00:43:58;6.00;1.00
6210;DHT22;3138;52.550;13.148;2023-02-18T00:46:27;5.90;1.00
6210;DHT22;3138;52.550;13.148;2023-02-18T00:48:54;5.80;1.00
6210;DHT22;3138;52.550;13.148;2023-02-18T00:51:22;5.80;1.00
6210;DHT22;3138;52.550;13.148;2023-02-18T00:53:49;5.70;31.30
6210;DHT22;3138;52.550;13.148;2023-02-18T00:56:17;5.80;41.30
6210;DHT22;3138;52.550;13.148;2023-02-18T00:58:44;5.80;1.00
6210;DHT22;3138;52.550;13.148;2023-02-18T01:01:11;5.90;1.00
6210;DHT22;3138;52.550;13.148;2023-02-18T01:03:40;5.80;1.00
6210;DHT22;3138;52.550;13.148;2023-02-18T01:06:07;5.80;1.00
6210;DHT22;3138;52.550;13.148;2023-02-18T01:08:35;5.80;1.00
6210;DHT22;3138;52.550;13.148;2023-02-18T01:11:03;5.70;23.10
6210;DHT22;3138;52.550;13.148;2023-02-18T01:13:30;5.70;10.80
6210;DHT22;3138;52.550;13.148;2023-02-18T01:15:57;5.70;8.70
6210;DHT22;3138;52.550;13.148;2023-02-18T01:18:25;5.70;18.10
6210;DHT22;3138;52.550;13.148;2023-02-18T01:20:53;5.70;37.20
6210;DHT22;3138;52.550;13.148;2023-02-18T01:23:20;5.70;15.10
6210;DHT22;3138;52.550;13.148;2023-02-18T01:25:47;5.70;1.00
6210;DHT22;3138;52.550;13.148;2023-02-18T01:28:14;5.80;1.00
6210;DHT22;3138;52.550;13.148;2023-02-18T01:30:41;5.70;1.00
6210;DHT22;3138;52.550;13.148;2023-02-18T01:33:08;5.70;1.00
6210;DHT22;3138;52.550;13.148;2023-02-18T01:35:37;5.80;1.00
6210;DHT22;3138;52.550;13.148;2023-02-18T01:38:05;5.80;1.00
6210;DHT22;3138;52.550;13.148;2023-02-18T01:40:32;5.80;1.00
6210;DHT22;3138;52.550;13.148;2023-02-18T01:42:59;5.70;1.00
6210;DHT22;3138;52.550;13.148;2023-02-18T01:45:57;5.70;9.50
6210;DHT22;3138;52.550;13.148;2023-02-18T01:48:28;5.80;1.00
6210;DHT22;3138;52.550;13.148;2023-02-18T01:50:59;5.80;1.00
6210;DHT22;3138;52.550;13.148;2023-02-18T01:53:32;5.80;1.00
6210;DHT22;3138;52.550;13.148;2023-02-18T01:56:03;5.90;1.00
6210;DHT22;3138;52.550;13.148;2023-02-18T01:58:32;5.90;1.00
6210;DHT22;3138;52.550;13.148;2023-02-18T02:00:59;5.80;1.00
6210;DHT22;3138;52.550;13.148;2023-02-18T02:03:26;5.70;8.70
6210;DHT22;3138;52.550;13.148;2023-02-18T02:05:53;5.70;16.80
6210;DHT22;3138;52.550;13.148;2023-02-18T02:08:20;5.70;17.30
6210;DHT22;3138;52.550;13.148;2023-02-18T02:11:06;5.80;1.00
6210;DHT22;3138;52.550;13.148;2023-02-18T02:13:46;5.80;1.00
6210;DHT22;3138;52.550;13.148;2023-02-18T02:16:20;5.80;1.00
6210;DHT22;3138;52.550;13.148;2023-02-18T02:18:57;5.80;1.00
6210;DHT22;3138;52.550;13.148;2023-02-18T02:24:53;5.80;1.00
6210;DHT22;3138;52.550;13.148;2023-02-18T02:27:32;5.70;1.00
6210;DHT22;3138;52.550;13.148;2023-02-18T02:33:39;5.60;1.00
6210;DHT22;3138;52.550;13.148;2023-02-18T02:36:14;5.60;1.00
6210;DHT22;3138;52.550;13.148;2023-02-18T02:38:48;5.50;41.10
6210;DHT22;3138;52.550;13.148;2023-02-18T02:41:30;5.60;11.10
6210;DHT22;3138;52.550;13.148;2023-02-18T02:44:05;5.60;1.00
6210;DHT22;3138;52.550;13.148;2023-02-18T02:46:38;5.50;21.30
6210;DHT22;3138;52.550;13.148;2023-02-18T02:49:13;5.60;10.40
6210;DHT22;3138;52.550;13.148;2023-02-18T02:51:50;5.60;1.00
6210;DHT22;3138;52.550;13.148;2023-02-18T02:54:21;5.60;1.00
6210;DHT22;3138;52.550;13.148;2023-02-18T02:56:48;5.60;1.00
6210;DHT22;3138;52.550;13.148;2023-02-18T02:59:17;5.70;1.00
6210;DHT22;3138;52.550;13.148;2023-02-18T03:01:57;5.70;1.00
6210;DHT22;3138;52.550;13.148;2023-02-18T03:04:40;5.70;1.00
6210;DHT22;3138;52.550;13.148;2023-02-18T03:07:26;5.70;1.00
6210;DHT22;3138;52.550;13.148;2023-02-18T03:10:11;5.60;1.00
6210;DHT22;3138;52.550;13.148;2023-02-18T03:12:47;5.60;1.00
6210;DHT22;3138;52.550;13.148;2023-02-18T03:15:23;5.50;1.00
6210;DHT22;3138;52.550;13.148;2023-02-18T03:17:56;5.50;1.00
6210;DHT22;3138;52.550;13.148;2023-02-18T03:20:27;5.50;1.00
6210;DHT22;3138;52.550;13.148;2023-02-18T03:22:59;5.60;1.00
6210;DHT22;3138;52.550;13.148;2023-02-18T03:25:27;5.60;1.00
6210;DHT22;3138;52.550;13.148;2023-02-18T03:27:58;5.60;1.00
6210;DHT22;3138;52.550;13.148;2023-02-18T03:30:29;5.70;1.00
6210;DHT22;3138;52.550;13.148;2023-02-18T03:32:59;5.70;1.00
6210;DHT22;3138;52.550;13.148;2023-02-18T03:35:28;5.90;1.00
6210;DHT22;3138;52.550;13.148;2023-02-18T03:38:01;5.80;1.00
6210;DHT22;3138;52.550;13.148;2023-02-18T03:40:30;5.80;1.00
6210;DHT22;3138;52.550;13.148;2023-02-18T03:42:57;5.90;1.00
6210;DHT22;3138;52.550;13.148;2023-02-18T03:45:25;5.90;1.00
6210;DHT22;3138;52.550;13.148;2023-02-18T03:47:52;5.80;99.90
6210;DHT22;3138;52.550;13.148;2023-02-18T03:50:19;5.80;99.90
6210;DHT22;3138;52.550;13.148;2023-02-18T03:52:46;5.80;99.90
6210;DHT22;3138;52.550;13.148;2023-02-18T03:55:14;5.80;99.90
6210;DHT22;3138;52.550;13.148;2023-02-18T03:57:41;5.80;99.90
6210;DHT22;3138;52.550;13.148;2023-02-18T04:00:08;5.80;99.90
6210;DHT22;3138;52.550;13.148;2023-02-18T04:02:36;5.60;99.90
6210;DHT22;3138;52.550;13.148;2023-02-18T04:05:03;5.70;99.90
6210;DHT22;3138;52.550;13.148;2023-02-18T04:07:30;5.70;99.90
6210;DHT22;3138;52.550;13.148;2023-02-18T04:09:57;5.60;99.90
6210;DHT22;3138;52.550;13.148;2023-02-18T04:12:25;5.70;99.90
6210;DHT22;3138;52.550;13.148;2023-02-18T04:14:52;5.60;99.90
6210;DHT22;3138;52.550;13.148;2023-02-18T04:17:19;5.50;1.00
6210;DHT22;3138;52.550;13.148;2023-02-18T04:19:45;5.40;1.00
6210;DHT22;3138;52.550;13.148;2023-02-18T04:22:12;5.50;1.00
6210;DHT22;3138;52.550;13.148;2023-02-18T04:24:39;5.50;1.00
6210;DHT22;3138;52.550;13.148;2023-02-18T04:27:06;5.40;1.00
6210;DHT22;3138;52.550;13.148;2023-02-18T04:29:34;5.50;1.00
6210;DHT22;3138;52.550;13.148;2023-02-18T04:32:01;5.50;1.00
6210;DHT22;3138;52.550;13.148;2023-02-18T04:34:28;5.50;1.00
6210;DHT22;3138;52.550;13.148;2023-02-18T04:36:55;5.50;1.00
6210;DHT22;3138;52.550;13.148;2023-02-18T04:39:22;5.40;1.00
6210;DHT22;3138;52.550;13.148;2023-02-18T04:41:48;5.40;1.00
6210;DHT22;3138;52.550;13.148;2023-02-18T04:44:15;5.40;1.00
6210;DHT22;3138;52.550;13.148;2023-02-18T04:46:43;5.30;1.00
6210;DHT22;3138;52.550;13.148;2023-02-18T04:49:10;5.30;1.00
6210;DHT22;3138;52.550;13.148;2023-02-18T04:51:37;5.30;1.00
6210;DHT22;3138;52.550;13.148;2023-02-18T04:54:04;5.30;1.00
6210;DHT22;3138;52.550;13.148;2023-02-18T04:56:31;5.30;1.00
6210;DHT22;3138;52.550;13.148;2023-02-18T04:58:57;5.30;1.00
6210;DHT22;3138;52.550;13.148;2023-02-18T05:01:24;5.30;1.00
6210;DHT22;3138;52.550;13.148;2023-02-18T05:03:52;5.30;1.00
6210;DHT22;3138;52.550;13.148;2023-02-18T05:06:19;5.40;1.00
6210;DHT22;3138;52.550;13.148;2023-02-18T05:08:46;5.40;1.00
6210;DHT22;3138;52.550;13.148;2023-02-18T05:11:13;5.50;1.00
6210;DHT22;3138;52.550;13.148;2023-02-18T05:13:40;5.50;1.00
6210;DHT22;3138;52.550;13.148;2023-02-18T05:16:07;5.60;1.00
6210;DHT22;3138;52.550;13.148;2023-02-18T05:18:33;5.70;1.00
6210;DHT22;3138;52.550;13.148;2023-02-18T05:21:03;5.80;99.90
6210;DHT22;3138;52.550;13.148;2023-02-18T05:23:30;5.70;99.90
6210;DHT22;3138;52.550;13.148;2023-02-18T05:25:57;5.70;99.90
6210;DHT22;3138;52.550;13.148;2023-02-18T05:28:24;5.70;99.90
6210;DHT22;3138;52.550;13.148;2023-02-18T05:30:50;5.70;99.90
6210;DHT22;3138;52.550;13.148;2023-02-18T05:33:17;5.70;99.90
6210;DHT22;3138;52.550;13.148;2023-02-18T05:35:44;5.80;99.90
6210;DHT22;3138;52.550;13.148;2023-02-18T05:38:12;5.90;99.90
6210;DHT22;3138;52.550;13.148;2023-02-18T05:40:39;5.90;99.90
6210;DHT22;3138;52.550;13.148;2023-02-18T05:43:06;5.90;99.90
6210;DHT22;3138;52.550;13.148;2023-02-18T05:45:33;5.90;99.90
6210;DHT22;3138;52.550;13.148;2023-02-18T05:48:00;5.90;99.90
6210;DHT22;3138;52.550;13.148;2023-02-18T05:50:27;5.90;99.90
6210;DHT22;3138;52.550;13.148;2023-02-18T05:52:53;6.00;99.90
6210;DHT22;3138;52.550;13.148;2023-02-18T05:55:22;6.00;99.90
6210;DHT22;3138;52.550;13.148;2023-02-18T05:57:49;6.00;99.90
6210;DHT22;3138;52.550;13.148;2023-02-18T06:00:17;6.00;99.90
6210;DHT22;3138;52.550;13.148;2023-02-18T06:02:44;6.00;99.90
6210;DHT22;3138;52.550;13.148;2023-02-18T06:05:11;6.10;99.90
6210;DHT22;3138;52.550;13.148;2023-02-18T06:07:38;6.10;99.90
6210;DHT22;3138;52.550;13.148;2023-02-18T06:10:06;6.00;99.90
6210;DHT22;3138;52.550;13.148;2023-02-18T06:12:34;6.00;99.90
6210;DHT22;3138;52.550;13.148;2023-02-18T06:15:01;6.00;99.90
6210;DHT22;3138;52.550;13.148;2023-02-18T06:17:28;6.00;99.90
6210;DHT22;3138;52.550;13.148;2023-02-18T06:19:55;6.00;99.90
6210;DHT22;3138;52.550;13.148;2023-02-18T06:22:22;6.10;99.90
6210;DHT22;3138;52.550;13.148;2023-02-18T06:24:48;6.10;99.90
6210;DHT22;3138;52.550;13.148;2023-02-18T06:27:15;6.10;99.90
6210;DHT22;3138;52.550;13.148;2023-02-18T06:29:43;6.10;99.90
6210;DHT22;3138;52.550;13.148;2023-02-18T06:32:10;6.10;99.90
6210;DHT22;3138;52.550;13.148;2023-02-18T06:34:37;6.10;99.90
6210;DHT22;3138;52.550;13.148;2023-02-18T06:37:04;6.10;99.90
6210;DHT22;3138;52.550;13.148;2023-02-18T06:39:31;6.20;99.90
6210;DHT22;3138;52.550;13.148;2023-02-18T06:41:57;6.10;99.90
6210;DHT22;3138;52.550;13.148;2023-02-18T06:44:24;6.10;99.90
6210;DHT22;3138;52.550;13.148;2023-02-18T06:46:53;6.10;99.90
6210;DHT22;3138;52.550;13.148;2023-02-18T06:49:19;6.10;99.90
6210;DHT22;3138;52.550;13.148;2023-02-18T06:51:46;6.10;99.90
6210;DHT22;3138;52.550;13.148;2023-02-18T06:54:13;6.20;99.90
6210;DHT22;3138;52.550;13.148;2023-02-18T06:56:40;6.20;99.90
6210;DHT22;3138;52.550;13.148;2023-02-18T06:59:07;6.20;99.90
6210;DHT22;3138;52.550;13.148;2023-02-18T07:01:34;6.30;99.90
6210;DHT22;3138;52.550;13.148;2023-02-18T07:04:02;6.30;99.90
6210;DHT22;3138;52.550;13.148;2023-02-18T07:06:29;6.30;99.90
6210;DHT22;3138;52.550;13.148;2023-02-18T07:08:56;6.40;99.90
6210;DHT22;3138;52.550;13.148;2023-02-18T07:11:22;6.40;99.90
6210;DHT22;3138;52.550;13.148;2023-02-18T07:13:49;6.50;99.90
6210;DHT22;3138;52.550;13.148;2023-02-18T07:16:16;6.50;99.90
6210;DHT22;3138;52.550;13.148;2023-02-18T07:18:43;6.50;99.90
6210;DHT22;3138;52.550;13.148;2023-02-18T07:21:11;6.50;99.90
6210;DHT22;3138;52.550;13.148;2023-02-18T07:23:38;6.60;99.90
6210;DHT22;3138;52.550;13.148;2023-02-18T07:26:06;6.60;99.90
6210;DHT22;3138;52.550;13.148;2023-02-18T07:28:33;6.60;99.90
6210;DHT22;3138;52.550;13.148;2023-02-18T07:31:00;6.70;99.90
6210;DHT22;3138;52.550;13.148;2023-02-18T07:33:27;6.70;99.90
6210;DHT22;3138;52.550;13.148;2023-02-18T07:35:55;6.70;99.90
6210;DHT22;3138;52.550;13.148;2023-02-18T07:38:24;6.70;99.90
6210;DHT22;3138;52.550;13.148;2023-02-18T07:40:52;6.70;99.90
6210;DHT22;3138;52.550;13.148;2023-02-18T07:43:19;6.70;99.90
6210;DHT22;3138;52.550;13.148;2023-02-18T07:45:46;6.70;99.90
6210;DHT22;3138;52.550;13.148;2023-02-18T07:48:13;6.80;99.90
6210;DHT22;3138;52.550;13.148;2023-02-18T07:50:40;6.80;99.90
6210;DHT22;3138;52.550;13.148;2023-02-18T07:53:07;6.80;99.90
6210;DHT22;3138;52.550;13.148;2023-02-18T07:55:35;6.70;1.00
6210;DHT22;3138;52.550;13.148;2023-02-18T07:58:15;6.70;1.00
6210;DHT22;3138;52.550;13.148;2023-02-18T08:00:42;6.70;1.00
6210;DHT22;3138;52.550;13.148;2023-02-18T08:03:08;6.70;1.00
6210;DHT22;3138;52.550;13.148;2023-02-18T08:05:35;6.70;1.00
6210;DHT22;3138;52.550;13.148;2023-02-18T08:08:02;6.70;1.00
6210;DHT22;3138;52.550;13.148;2023-02-18T08:10:29;6.70;1.00
6210;DHT22;3138;52.550;13.148;2023-02-18T08:12:57;6.70;1.00
6210;DHT22;3138;52.550;13.148;2023-02-18T08:15:24;6.70;1.00
6210;DHT22;3138;52.550;13.148;2023-02-18T08:17:51;6.70;1.00
6210;DHT22;3138;52.550;13.148;2023-02-18T08:20:18;6.70;53.50
6210;DHT22;3138;52.550;13.148;2023-02-18T08:22:45;6.70;99.90
6210;DHT22;3138;52.550;13.148;2023-02-18T08:25:12;6.60;99.90
6210;DHT22;3138;52.550;13.148;2023-02-18T08:27:39;6.60;1.00
6210;DHT22;3138;52.550;13.148;2023-02-18T08:30:08;6.50;93.70
6210;DHT22;3138;52.550;13.148;2023-02-18T08:32:36;6.50;99.90
6210;DHT22;3138;52.550;13.148;2023-02-18T08:35:03;6.50;1.00
6210;DHT22;3138;52.550;13.148;2023-02-18T08:37:30;6.50;8.70
6210;DHT22;3138;52.550;13.148;2023-02-18T08:39:56;6.60;99.90
6210;DHT22;3138;52.550;13.148;2023-02-18T08:42:23;6.60;99.90
6210;DHT22;3138;52.550;13.148;2023-02-18T08:44:50;6.60;1.00
6210;DHT22;3138;52.550;13.148;2023-02-18T08:47:18;6.50;1.00
6210;DHT22;3138;52.550;13.148;2023-02-18T08:49:45;6.40;1.00
6210;DHT22;3138;52.550;13.148;2023-02-18T08:52:12;6.40;99.90
6210;DHT22;3138;52.550;13.148;2023-02-18T08:54:39;6.50;99.90
6210;DHT22;3138;52.550;13.148;2023-02-18T08:57:06;6.50;1.00
6210;DHT22;3138;52.550;13.148;2023-02-18T08:59:33;6.60;1.00
6210;DHT22;3138;52.550;13.148;2023-02-18T09:02:00;6.60;7.30
6210;DHT22;3138;52.550;13.148;2023-02-18T09:04:28;6.60;37.90
6210;DHT22;3138;52.550;13.148;2023-02-18T09:06:55;6.60;82.20
6210;DHT22;3138;52.550;13.148;2023-02-18T09:09:22;6.60;99.90
6210;DHT22;3138;52.550;13.148;2023-02-18T09:11:49;6.60;99.90
6210;DHT22;3138;52.550;13.148;2023-02-18T09:14:16;6.60;99.90
6210;DHT22;3138;52.550;13.148;2023-02-18T09:16:43;6.50;99.90
6210;DHT22;3138;52.550;13.148;2023-02-18T09:19:10;6.70;1.00
6210;DHT22;3138;52.550;13.148;2023-02-18T09:21:38;6.60;1.00
6210;DHT22;3138;52.550;13.148;2023-02-18T09:24:05;6.60;1.00
6210;DHT22;3138;52.550;13.148;2023-02-18T09:26:32;6.60;1.00
6210;DHT22;3138;52.550;13.148;2023-02-18T09:28:59;6.70;1.00
6210;DHT22;3138;52.550;13.148;2023-02-18T09:31:26;6.70;40.10
6210;DHT22;3138;52.550;13.148;2023-02-18T09:33:56;6.80;99.90
6210;DHT22;3138;52.550;13.148;2023-02-18T09:36:23;6.80;99.90
6210;DHT22;3138;52.550;13.148;2023-02-18T09:38:52;6.70;99.90
6210;DHT22;3138;52.550;13.148;2023-02-18T09:41:26;6.70;99.90
6210;DHT22;3138;52.550;13.148;2023-02-18T09:43:57;6.80;99.90
6210;DHT22;3138;52.550;13.148;2023-02-18T09:46:28;6.80;1.00
6210;DHT22;3138;52.550;13.148;2023-02-18T09:48:56;6.80;1.00
6210;DHT22;3138;52.550;13.148;2023-02-18T09:51:23;6.70;1.00
6210;DHT22;3138;52.550;13.148;2023-02-18T09:53:52;6.70;1.00
6210;DHT22;3138;52.550;13.148;2023-02-18T09:56:22;6.70;1.00
6210;DHT22;3138;52.550;13.148;2023-02-18T09:58:52;6.80;1.00
6210;DHT22;3138;52.550;13.148;2023-02-18T10:01:23;6.70;1.00
6210;DHT22;3138;52.550;13.148;2023-02-18T10:03:51;6.60;1.00
6210;DHT22;3138;52.550;13.148;2023-02-18T10:06:21;6.60;1.00
6210;DHT22;3138;52.550;13.148;2023-02-18T10:08:52;6.60;79.40
6210;DHT22;3138;52.550;13.148;2023-02-18T10:11:23;6.50;56.50
6210;DHT22;3138;52.550;13.148;2023-02-18T10:13:54;6.60;99.90
6210;DHT22;3138;52.550;13.148;2023-02-18T10:16:24;6.50;99.90
6210;DHT22;3138;52.550;13.148;2023-02-18T10:18:54;6.50;99.90
6210;DHT22;3138;52.550;13.148;2023-02-18T10:21:24;6.50;1.00
6210;DHT22;3138;52.550;13.148;2023-02-18T10:23:58;6.60;1.00
6210;DHT22;3138;52.550;13.148;2023-02-18T10:26:26;6.60;1.00
6210;DHT22;3138;52.550;13.148;2023-02-18T10:28:56;6.70;1.00
6210;DHT22;3138;52.550;13.148;2023-02-18T10:31:27;6.70;1.00
6210;DHT22;3138;52.550;13.148;2023-02-18T10:33:59;6.70;27.20
6210;DHT22;3138;52.550;13.148;2023-02-18T10:36:35;6.70;71.10
6210;DHT22;3138;52.550;13.148;2023-02-18T10:39:28;6.90;99.90
6210;DHT22;3138;52.550;13.148;2023-02-18T10:42:09;6.90;99.90
6210;DHT22;3138;52.550;13.148;2023-02-18T10:44:48;6.90;99.90
6210;DHT22;3138;52.550;13.148;2023-02-18T10:47:25;6.80;99.90
6210;DHT22;3138;52.550;13.148;2023-02-18T10:49:58;6.90;99.90
6210;DHT22;3138;52.550;13.148;2023-02-18T10:52:27;6.80;99.90
6210;DHT22;3138;52.550;13.148;2023-02-18T10:55:00;6.90;99.90
6210;DHT22;3138;52.550;13.148;2023-02-18T10:57:29;6.80;99.90
6210;DHT22;3138;52.550;13.148;2023-02-18T10:59:59;7.00;99.90
6210;DHT22;3138;52.550;13.148;2023-02-18T11:02:28;7.00;99.90
6210;DHT22;3138;52.550;13.148;2023-02-18T11:04:58;7.00;99.90
6210;DHT22;3138;52.550;13.148;2023-02-18T11:07:30;7.10;99.90
6210;DHT22;3138;52.550;13.148;2023-02-18T11:10:00;7.10;99.90
6210;DHT22;3138;52.550;13.148;2023-02-18T11:12:31;7.20;99.90
6210;DHT22;3138;52.550;13.148;2023-02-18T11:15:07;7.10;99.90
6210;DHT22;3138;52.550;13.148;2023-02-18T11:17:43;7.00;99.90
6210;DHT22;3138;52.550;13.148;2023-02-18T11:20:24;7.00;99.90
6210;DHT22;3138;52.550;13.148;2023-02-18T11:22:56;7.00;99.90
6210;DHT22;3138;52.550;13.148;2023-02-18T11:25:27;6.90;99.90
6210;DHT22;3138;52.550;13.148;2023-02-18T11:27:59;7.00;99.90
6210;DHT22;3138;52.550;13.148;2023-02-18T11:30:30;6.90;99.90
6210;DHT22;3138;52.550;13.148;2023-02-18T11:33:06;6.90;99.90
6210;DHT22;3138;52.550;13.148;2023-02-18T11:35:35;6.90;99.90
6210;DHT22;3138;52.550;13.148;2023-02-18T11:38:20;6.80;99.90
6210;DHT22;3138;52.550;13.148;2023-02-18T11:40:55;6.90;99.90
6210;DHT22;3138;52.550;13.148;2023-02-18T11:43:28;7.00;99.90
6210;DHT22;3138;52.550;13.148;2023-02-18T11:46:08;7.00;99.90
6210;DHT22;3138;52.550;13.148;2023-02-18T11:48:35;7.10;99.90
6210;DHT22;3138;52.550;13.148;2023-02-18T11:51:02;7.10;99.90
6210;DHT22;3138;52.550;13.148;2023-02-18T11:53:32;7.10;99.90
6210;DHT22;3138;52.550;13.148;2023-02-18T11:56:03;7.20;99.90
6210;DHT22;3138;52.550;13.148;2023-02-18T11:58:36;7.20;99.90
6210;DHT22;3138;52.550;13.148;2023-02-18T12:01:05;7.30;99.90
6210;DHT22;3138;52.550;13.148;2023-02-18T12:03:39;7.50;99.90
6210;DHT22;3138;52.550;13.148;2023-02-18T12:06:14;7.50;99.90
6210;DHT22;3138;52.550;13.148;2023-02-18T12:08:48;7.60;99.90
6210;DHT22;3138;52.550;13.148;2023-02-18T12:11:25;7.80;99.90
6210;DHT22;3138;52.550;13.148;2023-02-18T12:13:54;7.80;99.90
6210;DHT22;3138;52.550;13.148;2023-02-18T12:16:28;7.90;99.90
6210;DHT22;3138;52.550;13.148;2023-02-18T12:19:07;8.00;99.90
6210;DHT22;3138;52.550;13.148;2023-02-18T12:21:44;8.20;99.90
6210;DHT22;3138;52.550;13.148;2023-02-18T12:24:25;8.30;99.90
6210;DHT22;3138;52.550;13.148;2023-02-18T12:27:04;8.30;99.90
6210;DHT22;3138;52.550;13.148;2023-02-18T12:32:34;8.50;99.90
6210;DHT22;3138;52.550;13.148;2023-02-18T12:35:29;8.60;99.90
6210;DHT22;3138;52.550;13.148;2023-02-18T12:38:17;8.80;99.90
6210;DHT22;3138;52.550;13.148;2023-02-18T12:40:57;8.90;99.90
6210;DHT22;3138;52.550;13.148;2023-02-18T12:43:36;9.10;99.90
6210;DHT22;3138;52.550;13.148;2023-02-18T12:46:20;9.30;99.90
6210;DHT22;3138;52.550;13.148;2023-02-18T12:52:01;9.50;99.90
6210;DHT22;3138;52.550;13.148;2023-02-18T12:57:38;9.80;99.90
6210;DHT22;3138;52.550;13.148;2023-02-18T13:00:37;9.90;99.90
6210;DHT22;3138;52.550;13.148;2023-02-18T13:03:31;10.00;99.90
6210;DHT22;3138;52.550;13.148;2023-02-18T13:06:11;10.00;99.90
6210;DHT22;3138;52.550;13.148;2023-02-18T13:08:49;10.00;99.90
6210;DHT22;3138;52.550;13.148;2023-02-18T13:11:33;10.00;99.90
6210;DHT22;3138;52.550;13.148;2023-02-18T13:14:06;10.10;99.90
6210;DHT22;3138;52.550;13.148;2023-02-18T13:16:37;10.00;99.90
6210;DHT22;3138;52.550;13.148;2023-02-18T13:19:13;10.10;99.90
6210;DHT22;3138;52.550;13.148;2023-02-18T13:21:42;10.10;99.90
6210;DHT22;3138;52.550;13.148;2023-02-18T13:24:13;10.00;99.90
6210;DHT22;3138;52.550;13.148;2023-02-18T13:26:41;10.00;99.90
6210;DHT22;3138;52.550;13.148;2023-02-18T13:29:19;10.00;99.90
6210;DHT22;3138;52.550;13.148;2023-02-18T13:31:57;10.00;99.90
6210;DHT22;3138;52.550;13.148;2023-02-18T13:34:31;10.00;99.90
6210;DHT22;3138;52.550;13.148;2023-02-18T13:37:07;10.10;99.90
6210;DHT22;3138;52.550;13.148;2023-02-18T13:39:35;10.10;99.90
6210;DHT22;3138;52.550;13.148;2023-02-18T13:42:26;10.10;99.90
6210;DHT22;3138;52.550;13.148;2023-02-18T13:45:14;10.10;99.90
6210;DHT22;3138;52.550;13.148;2023-02-18T13:47:49;10.00;99.90
6210;DHT22;3138;52.550;13.148;2023-02-18T13:50:25;10.10;99.90
6210;DHT22;3138;52.550;13.148;2023-02-18T13:53:01;10.10;99.90
6210;DHT22;3138;52.550;13.148;2023-02-18T13:55:40;10.10;99.90
6210;DHT22;3138;52.550;13.148;2023-02-18T13:58:13;10.10;99.90
6210;DHT22;3138;52.550;13.148;2023-02-18T14:00:50;10.10;99.90
6210;DHT22;3138;52.550;13.148;2023-02-18T14:03:33;10.10;99.90
6210;DHT22;3138;52.550;13.148;2023-02-18T14:06:00;10.10;99.90
6210;DHT22;3138;52.550;13.148;2023-02-18T14:08:32;10.20;99.90
6210;DHT22;3138;52.550;13.148;2023-02-18T14:11:23;10.10;99.90
6210;DHT22;3138;52.550;13.148;2023-02-18T14:13:53;10.10;99.90
6210;DHT22;3138;52.550;13.148;2023-02-18T14:16:21;10.10;99.90
6210;DHT22;3138;52.550;13.148;2023-02-18T14:19:00;10.10;99.90
6210;DHT22;3138;52.550;13.148;2023-02-18T14:21:40;10.20;99.90
6210;DHT22;3138;52.550;13.148;2023-02-18T14:24:10;10.20;99.90
6210;DHT22;3138;52.550;13.148;2023-02-18T14:26:43;10.20;99.90
6210;DHT22;3138;52.550;13.148;2023-02-18T14:29:14;10.20;99.90
6210;DHT22;3138;52.550;13.148;2023-02-18T14:31:51;10.10;99.90
6210;DHT22;3138;52.550;13.148;2023-02-18T14:34:34;10.20;99.90
6210;DHT22;3138;52.550;13.148;2023-02-18T14:37:34;10.20;99.90
6210;DHT22;3138;52.550;13.148;2023-02-18T14:40:19;10.20;99.90
6210;DHT22;3138;52.550;13.148;2023-02-18T14:42:58;10.20;99.90
6210;DHT22;3138;52.550;13.148;2023-02-18T14:45:34;10.10;99.90
6210;DHT22;3138;52.550;13.148;2023-02-18T14:48:18;10.10;99.90
6210;DHT22;3138;52.550;13.148;2023-02-18T14:50:52;10.20;99.90
6210;DHT22;3138;52.550;13.148;2023-02-18T14:53:23;10.20;99.90
6210;DHT22;3138;52.550;13.148;2023-02-18T14:55:52;10.30;99.90
6210;DHT22;3138;52.550;13.148;2023-02-18T14:58:27;10.30;99.90
6210;DHT22;3138;52.550;13.148;2023-02-18T15:00:55;10.40;99.90
6210;DHT22;3138;52.550;13.148;2023-02-18T15:03:24;10.50;99.90
6210;DHT22;3138;52.550;13.148;2023-02-18T15:05:53;10.50;99.90
6210;DHT22;3138;52.550;13.148;2023-02-18T15:08:21;10.50;99.90
6210;DHT22;3138;52.550;13.148;2023-02-18T15:10:50;10.40;99.90
6210;DHT22;3138;52.550;13.148;2023-02-18T15:13:21;10.40;99.90
6210;DHT22;3138;52.550;13.148;2023-02-18T15:15:51;10.40;99.90
6210;DHT22;3138;52.550;13.148;2023-02-18T15:18:27;10.40;99.90
6210;DHT22;3138;52.550;13.148;2023-02-18T15:20:56;10.40;99.90
6210;DHT22;3138;52.550;13.148;2023-02-18T15:23:25;10.60;99.90
6210;DHT22;3138;52.550;13.148;2023-02-18T15:25:53;10.50;99.90
6210;DHT22;3138;52.550;13.148;2023-02-18T15:28:22;10.50;99.90
6210;DHT22;3138;52.550;13.148;2023-02-18T15:30:49;10.50;99.90
6210;DHT22;3138;52.550;13.148;2023-02-18T15:33:18;10.50;99.90
6210;DHT22;3138;52.550;13.148;2023-02-18T15:35:46;10.40;99.90
6210;DHT22;3138;52.550;13.148;2023-02-18T15:38:17;10.40;99.90
6210;DHT22;3138;52.550;13.148;2023-02-18T15:40:47;10.40;99.90
6210;DHT22;3138;52.550;13.148;2023-02-18T15:43:20;10.30;99.90
6210;DHT22;3138;52.550;13.148;2023-02-18T15:45:49;10.20;99.90
6210;DHT22;3138;52.550;13.148;2023-02-18T15:48:23;10.30;99.90
6210;DHT22;3138;52.550;13.148;2023-02-18T15:50:55;10.20;99.90
6210;DHT22;3138;52.550;13.148;2023-02-18T15:53:24;10.10;99.90
6210;DHT22;3138;52.550;13.148;2023-02-18T15:55:52;10.10;99.90
6210;DHT22;3138;52.550;13.148;2023-02-18T15:58:23;10.10;99.90
6210;DHT22;3138;52.550;13.148;2023-02-18T16:00:56;10.00;99.90
6210;DHT22;3138;52.550;13.148;2023-02-18T16:03:25;9.90;99.90
6210;DHT22;3138;52.550;13.148;2023-02-18T16:06:09;9.90;99.90
6210;DHT22;3138;52.550;13.148;2023-02-18T16:08:37;9.90;99.90
6210;DHT22;3138;52.550;13.148;2023-02-18T16:11:07;9.80;99.90
6210;DHT22;3138;52.550;13.148;2023-02-18T16:13:36;9.80;99.90
6210;DHT22;3138;52.550;13.148;2023-02-18T16:16:21;9.80;99.90
6210;DHT22;3138;52.550;13.148;2023-02-18T16:18:48;9.80;99.90
6210;DHT22;3138;52.550;13.148;2023-02-18T16:21:23;9.80;99.90
6210;DHT22;3138;52.550;13.148;2023-02-18T16:23:54;9.80;99.90
6210;DHT22;3138;52.550;13.148;2023-02-18T16:26:28;9.60;99.90
6210;DHT22;3138;52.550;13.148;2023-02-18T16:29:01;9.40;99.90
6210;DHT22;3138;52.550;13.148;2023-02-18T16:31:28;9.30;99.90
6210;DHT22;3138;52.550;13.148;2023-02-18T16:33:55;9.40;99.90
6210;DHT22;3138;52.550;13.148;2023-02-18T16:36:22;9.40;99.90
6210;DHT22;3138;52.550;13.148;2023-02-18T16:38:52;9.30;99.90
6210;DHT22;3138;52.550;13.148;2023-02-18T16:41:19;9.30;99.90
6210;DHT22;3138;52.550;13.148;2023-02-18T16:43:45;9.30;99.90